map of KNT home
KNT - Airport
Location
City:  Kennett, Missouri, United States
Name:Kennett Memorial Airport
ICAO:KTKX
IATA:KNT
FAA LID:TKX

Details
Type:Airport (Airfield)
Use:Public/Civil
Latitude:3613'33"N (36.225862)
Longitude:9002'12"W (-90.036640)
Datum:WGS 1984
Elevation:261 ft (80 m)
Variation:1.51W (WMM2015 magnetic declination)
-0.09 annual change
Runways:2
Longest:5000 × 75 ft (1524 × 23 m), paved

Time
Time Zone:UTC-6 (DST-5)
Local Time:

Weather
METAR:KTKX 160955Z AUTO 22007KT 10SM CLR 01/M00 A3008 RMK AO2

Related Locations
Nearby:
Farthest:YAUG: 11017 mi / 17731 km
Augusta [Augusta Airport], WA, AU

Find:

   beyond  
but within

Other Information
Maps:
NOTAMs:
Links:
Sources:

  
  • flag of United States
  • flag of Missouri
  

Sectional Chart

Flight Planning
at skyvector.com

Satellite Image

Google Maps Satellite view

 

Copyright © 2004-2018 Karl L. Swartz. All rights reserved.
The Great Circle Mapper name and logo are trademarks of the Great Circle Mapper.
All other trademarks mentioned herein belong to their respective owners.
Please see credits for attibutions and further copyright information.

  Follow gcmap on Facebook Follow gcmap on Twitter Follow gcmap on Google+ GCmap on LinkedIn

hCard Microformat

Geo Microformat